Time,TemperatureF,DewpointF,PressureIn,WindDirection,WindDirectionDegrees,WindSpeedMPH,WindSpeedGustMPH,Humidity,HourlyPrecipIn,Conditions,Clouds,dailyrainin,SoftwareType,DateUTC
2013-04-21 00:12:00,43.8,32.0,29.91,SSW,198,1.0,2.0,63,0.00,,,0.00,weatherlink.com 1.10,2013-04-21 06:12:00,
2013-04-21 00:27:00,43.3,32.0,29.91,SSW,208,1.0,3.0,65,0.00,,,0.00,weatherlink.com 1.10,2013-04-21 06:27:00,
2013-04-21 00:43:00,43.1,32.0,29.91,WSW,240,0.0,3.0,65,0.00,,,0.00,weatherlink.com 1.10,2013-04-21 06:43:00,
2013-04-21 00:58:00,42.8,32.0,29.92,West,276,0.0,1.0,66,0.00,,,0.00,weatherlink.com 1.10,2013-04-21 06:58:00,
2013-04-21 01:13:00,44.3,30.0,29.91,West,279,1.0,5.0,57,0.00,,,0.00,weatherlink.com 1.10,2013-04-21 07:13:00,
2013-04-21 01:28:00,45.3,30.0,29.91,West,264,1.0,4.0,55,0.00,,,0.00,weatherlink.com 1.10,2013-04-21 07:28:00,
2013-04-21 01:43:00,46.1,29.0,29.91,WSW,246,5.0,9.0,51,0.00,,,0.00,weatherlink.com 1.10,2013-04-21 07:43:00,
2013-04-21 01:58:00,46.3,28.0,29.91,West,260,1.0,9.0,50,0.00,,,0.00,weatherlink.com 1.10,2013-04-21 07:58:00,
2013-04-21 02:13:00,45.9,28.0,29.91,West,271,0.0,4.0,50,0.00,,,0.00,weatherlink.com 1.10,2013-04-21 08:13:00,
2013-04-21 02:28:00,46.0,27.0,29.91,WSW,245,0.0,5.0,48,0.00,,,0.00,weatherlink.com 1.10,2013-04-21 08:28:00,
2013-04-21 02:43:00,46.0,27.0,29.91,West,274,1.0,3.0,47,0.00,,,0.00,weatherlink.com 1.10,2013-04-21 08:43:00,
2013-04-21 02:58:00,45.6,26.0,29.91,SW,233,0.0,2.0,47,0.00,,,0.00,weatherlink.com 1.10,2013-04-21 08:58:00,
2013-04-21 03:13:00,43.1,28.0,29.91,NNE,26,2.0,3.0,56,0.00,,,0.00,weatherlink.com 1.10,2013-04-21 09:13:00,
2013-04-21 03:28:00,47.0,25.0,29.91,West,263,3.0,12.0,42,0.00,,,0.00,weatherlink.com 1.10,2013-04-21 09:28:00,
2013-04-21 03:43:00,45.4,25.0,29.91,WSW,245,0.0,1.0,45,0.00,,,0.00,weatherlink.com 1.10,2013-04-21 09:43:00,
2013-04-21 03:58:00,43.9,25.0,29.92,WSW,255,0.0,5.0,48,0.00,,,0.00,weatherlink.com 1.10,2013-04-21 09:58:00,
2013-04-21 04:13:00,45.3,25.0,29.91,WSW,248,1.0,7.0,45,0.00,,,0.00,weatherlink.com 1.10,2013-04-21 10:13:00,
2013-04-21 04:28:00,45.7,25.0,29.91,NW,324,1.0,6.0,45,0.00,,,0.00,weatherlink.com 1.10,2013-04-21 10:28:00,
2013-04-21 04:43:00,44.1,25.0,29.91,WNW,285,0.0,1.0,48,0.00,,,0.00,weatherlink.com 1.10,2013-04-21 10:43:00,
2013-04-21 04:58:00,42.4,25.0,29.91,WNW,282,1.0,2.0,51,0.00,,,0.00,weatherlink.com 1.10,2013-04-21 10:58:00,
2013-04-21 05:13:00,42.6,25.0,29.92,West,271,0.0,2.0,51,0.00,,,0.00,weatherlink.com 1.10,2013-04-21 11:13:00,
2013-04-21 05:28:00,42.2,25.0,29.92,WSW,245,1.0,2.0,51,0.00,,,0.00,weatherlink.com 1.10,2013-04-21 11:28:00,
2013-04-21 05:43:00,39.4,27.0,29.93,SW,232,2.0,2.0,61,0.00,,,0.00,weatherlink.com 1.10,2013-04-21 11:43:00,
2013-04-21 05:58:00,39.3,26.0,29.93,WSW,239,0.0,3.0,59,0.00,,,0.00,weatherlink.com 1.10,2013-04-21 11:58:00,
2013-04-21 06:13:00,39.6,26.0,29.94,SSW,194,0.0,3.0,58,0.00,,,0.00,weatherlink.com 1.10,2013-04-21 12:13:00,
2013-04-21 06:28:00,36.4,27.0,29.94,SSW,194,1.0,1.0,68,0.00,,,0.00,weatherlink.com 1.10,2013-04-21 12:28:00,
2013-04-21 06:43:00,36.2,28.0,29.95,SE,146,0.0,1.0,73,0.00,,,0.00,weatherlink.com 1.10,2013-04-21 12:43:00,
2013-04-21 06:58:00,37.9,29.0,29.95,SW,221,0.0,1.0,69,0.00,,,0.00,weatherlink.com 1.10,2013-04-21 12:58:00,
2013-04-21 07:13:00,41.8,29.0,29.96,SW,214,0.0,1.0,62,0.00,,,0.00,weatherlink.com 1.10,2013-04-21 13:13:00,
2013-04-21 07:28:00,43.5,29.0,29.96,ESE,121,0.0,1.0,58,0.00,,,0.00,weatherlink.com 1.10,2013-04-21 13:28:00,
2013-04-21 07:43:00,46.0,30.0,29.97,SE,127,0.0,2.0,55,0.00,,,0.00,weatherlink.com 1.10,2013-04-21 13:43:00,
2013-04-21 07:58:00,48.1,30.0,29.97,East,93,0.0,1.0,49,0.00,,,0.00,weatherlink.com 1.10,2013-04-21 13:58:00,
2013-04-21 08:14:00,49.7,27.0,29.96,WSW,238,0.0,2.0,42,0.00,,,0.00,weatherlink.com 1.10,2013-04-21 14:14:00,
2013-04-21 08:29:00,52.8,27.0,29.96,SE,143,2.0,2.0,37,0.00,,,0.00,weatherlink.com 1.10,2013-04-21 14:29:00,
2013-04-21 08:44:00,51.5,28.0,29.96,SSE,155,2.0,4.0,41,0.00,,,0.00,weatherlink.com 1.10,2013-04-21 14:44:00,
2013-04-21 08:59:00,50.4,30.0,29.96,East,81,4.0,5.0,45,0.00,,,0.00,weatherlink.com 1.10,2013-04-21 14:59:00,
2013-04-21 09:14:00,50.3,29.0,29.96,WSW,249,1.0,5.0,44,0.00,,,0.00,weatherlink.com 1.10,2013-04-21 15:14:00,
2013-04-21 09:29:00,51.6,27.0,29.96,SSW,210,2.0,3.0,38,0.00,,,0.00,weatherlink.com 1.10,2013-04-21 15:29:00,
2013-04-21 09:44:00,52.4,22.0,29.95,WNW,290,3.0,5.0,30,0.00,,,0.00,weatherlink.com 1.10,2013-04-21 15:44:00,
2013-04-21 09:59:00,54.1,21.0,29.96,West,270,2.0,9.0,27,0.00,,,0.00,weatherlink.com 1.10,2013-04-21 15:59:00,
2013-04-21 10:14:00,55.5,22.0,29.95,NNW,344,5.0,6.0,27,0.00,,,0.00,weatherlink.com 1.10,2013-04-21 16:14:00,
2013-04-21 10:29:00,55.3,22.0,29.95,WNW,299,3.0,9.0,27,0.00,,,0.00,weatherlink.com 1.10,2013-04-21 16:29:00,
2013-04-21 10:44:00,55.5,22.0,29.95,WNW,283,3.0,7.0,27,0.00,,,0.00,weatherlink.com 1.10,2013-04-21 16:44:00,
2013-04-21 10:59:00,55.3,22.0,29.95,SW,232,2.0,7.0,27,0.00,,,0.00,weatherlink.com 1.10,2013-04-21 16:59:00,
2013-04-21 11:14:00,57.0,21.0,29.94,ESE,106,1.0,6.0,25,0.00,,,0.00,weatherlink.com 1.10,2013-04-21 17:14:00,
2013-04-21 11:29:00,57.2,22.0,29.94,WSW,237,1.0,6.0,25,0.00,,,0.00,weatherlink.com 1.10,2013-04-21 17:29:00,
2013-04-21 11:44:00,59.1,21.0,29.93,SSW,203,4.0,6.0,23,0.00,,,0.00,weatherlink.com 1.10,2013-04-21 17:44:00,
2013-04-21 11:59:00,59.7,22.0,29.92,SW,217,2.0,6.0,23,0.00,,,0.00,weatherlink.com 1.10,2013-04-21 17:59:00,
2013-04-21 12:14:00,59.4,22.0,29.91,East,89,2.0,6.0,24,0.00,,,0.00,weatherlink.com 1.10,2013-04-21 18:14:00,
2013-04-21 12:29:00,60.5,22.0,29.90,SW,217,3.0,6.0,23,0.00,,,0.00,weatherlink.com 1.10,2013-04-21 18:29:00,
2013-04-21 12:44:00,61.3,24.0,29.89,East,93,4.0,6.0,24,0.00,,,0.00,weatherlink.com 1.10,2013-04-21 18:44:00,
2013-04-21 12:59:00,59.9,21.0,29.88,WSW,256,2.0,7.0,22,0.00,,,0.00,weatherlink.com 1.10,2013-04-21 18:59:00,
2013-04-21 13:14:00,60.7,20.0,29.88,WNW,284,1.0,8.0,21,0.00,,,0.00,weatherlink.com 1.10,2013-04-21 19:14:00,
2013-04-21 13:29:00,60.9,23.0,29.87,West,276,2.0,7.0,23,0.00,,,0.00,weatherlink.com 1.10,2013-04-21 19:29:00,
2013-04-21 13:44:00,61.1,20.0,29.87,NNE,16,0.0,7.0,20,0.00,,,0.00,weatherlink.com 1.10,2013-04-21 19:44:00,
2013-04-21 13:59:00,61.9,22.0,29.86,ENE,58,3.0,8.0,22,0.00,,,0.00,weatherlink.com 1.10,2013-04-21 19:59:00,
2013-04-21 14:14:00,62.5,22.0,29.86,NNE,15,5.0,7.0,21,0.00,,,0.00,weatherlink.com 1.10,2013-04-21 20:14:00,
2013-04-21 14:29:00,61.7,21.0,29.85,East,86,5.0,8.0,21,0.00,,,0.00,weatherlink.com 1.10,2013-04-21 20:29:00,
2013-04-21 14:44:00,62.2,23.0,29.85,ENE,60,1.0,6.0,22,0.00,,,0.00,weatherlink.com 1.10,2013-04-21 20:44:00,
2013-04-21 14:59:00,61.4,21.0,29.85,ESE,102,1.0,6.0,21,0.00,,,0.00,weatherlink.com 1.10,2013-04-21 20:59:00,
2013-04-21 15:14:00,60.8,22.0,29.85,ENE,58,5.0,7.0,22,0.00,,,0.00,weatherlink.com 1.10,2013-04-21 21:14:00,
2013-04-21 15:29:00,60.2,20.0,29.85,NE,37,4.0,7.0,21,0.00,,,0.00,weatherlink.com 1.10,2013-04-21 21:29:00,
2013-04-21 15:45:00,60.6,20.0,29.84,ENE,65,3.0,10.0,21,0.00,,,0.00,weatherlink.com 1.10,2013-04-21 21:45:00,
2013-04-21 16:00:00,60.7,22.0,29.83,North,360,4.0,5.0,23,0.00,,,0.00,weatherlink.com 1.10,2013-04-21 22:00:00,
2013-04-21 16:15:00,60.7,21.0,29.83,NNE,30,6.0,7.0,22,0.00,,,0.00,weatherlink.com 1.10,2013-04-21 22:15:00,
2013-04-21 16:30:00,60.4,22.0,29.84,NNE,27,4.0,9.0,23,0.00,,,0.00,weatherlink.com 1.10,2013-04-21 22:30:00,
2013-04-21 16:45:00,59.3,20.0,29.84,ENE,69,3.0,8.0,22,0.00,,,0.00,weatherlink.com 1.10,2013-04-21 22:45:00,
2013-04-21 17:00:00,59.0,21.0,29.85,East,79,5.0,9.0,23,0.00,,,0.00,weatherlink.com 1.10,2013-04-21 23:00:00,
2013-04-21 17:15:00,58.2,21.0,29.84,ENE,70,2.0,5.0,24,0.00,,,0.00,weatherlink.com 1.10,2013-04-21 23:15:00,
2013-04-21 17:30:00,58.6,21.0,29.84,ENE,57,3.0,3.0,23,0.00,,,0.00,weatherlink.com 1.10,2013-04-21 23:30:00,
2013-04-21 17:45:00,58.7,20.0,29.83,ENE,58,2.0,8.0,22,0.00,,,0.00,weatherlink.com 1.10,2013-04-21 23:45:00,
2013-04-21 18:00:00,58.9,20.0,29.83,NNE,22,2.0,6.0,22,0.00,,,0.00,weatherlink.com 1.10,2013-04-22 00:00:00,
2013-04-21 18:15:00,58.2,21.0,29.83,NNE,25,2.0,9.0,24,0.00,,,0.00,weatherlink.com 1.10,2013-04-22 00:15:00,
2013-04-21 18:30:00,57.8,21.0,29.83,ENE,63,4.0,8.0,24,0.00,,,0.00,weatherlink.com 1.10,2013-04-22 00:30:00,
2013-04-21 18:45:00,57.5,20.0,29.84,NNW,346,3.0,9.0,23,0.00,,,0.00,weatherlink.com 1.10,2013-04-22 00:45:00,
2013-04-21 19:00:00,57.5,21.0,29.84,ENE,58,2.0,9.0,24,0.00,,,0.00,weatherlink.com 1.10,2013-04-22 01:00:00,
2013-04-21 19:15:00,57.2,23.0,29.85,NNE,23,2.0,12.0,27,0.00,,,0.00,weatherlink.com 1.10,2013-04-22 01:15:00,
2013-04-21 19:30:00,56.1,25.0,29.86,NNE,15,2.0,7.0,30,0.00,,,0.00,weatherlink.com 1.10,2013-04-22 01:30:00,
2013-04-21 19:45:00,55.1,26.0,29.86,NE,34,3.0,5.0,32,0.00,,,0.00,weatherlink.com 1.10,2013-04-22 01:45:00,
2013-04-21 20:00:00,54.4,26.0,29.85,NE,47,2.0,4.0,33,0.00,,,0.00,weatherlink.com 1.10,2013-04-22 02:00:00,
2013-04-21 20:15:00,53.8,27.0,29.86,NNE,26,1.0,3.0,35,0.00,,,0.00,weatherlink.com 1.10,2013-04-22 02:15:00,
2013-04-21 20:30:00,53.0,27.0,29.86,NNE,26,1.0,5.0,37,0.00,,,0.00,weatherlink.com 1.10,2013-04-22 02:30:00,
2013-04-21 20:45:00,52.2,28.0,29.86,South,174,1.0,2.0,39,0.00,,,0.00,weatherlink.com 1.10,2013-04-22 02:45:00,
2013-04-21 21:00:00,51.1,27.0,29.86,SSW,193,0.0,2.0,39,0.00,,,0.00,weatherlink.com 1.10,2013-04-22 03:00:00,
2013-04-21 21:15:00,49.4,27.0,29.86,SSW,193,0.0,1.0,42,0.00,,,0.00,weatherlink.com 1.10,2013-04-22 03:15:00,
2013-04-21 21:30:00,48.6,27.0,29.87,SW,214,0.0,1.0,43,0.00,,,0.00,weatherlink.com 1.10,2013-04-22 03:30:00,
2013-04-21 21:45:00,47.4,27.0,29.87,East,79,0.0,1.0,46,0.00,,,0.00,weatherlink.com 1.10,2013-04-22 03:45:00,
2013-04-21 22:00:00,46.7,27.0,29.86,NW,325,0.0,0.0,47,0.00,,,0.00,weatherlink.com 1.10,2013-04-22 04:00:00,
2013-04-21 22:15:00,46.2,27.0,29.86,SSW,208,0.0,4.0,48,0.00,,,0.00,weatherlink.com 1.10,2013-04-22 04:15:00,
2013-04-21 22:30:00,45.0,28.0,29.86,South,177,0.0,1.0,51,0.00,,,0.00,weatherlink.com 1.10,2013-04-22 04:30:00,
2013-04-21 22:45:00,43.2,27.0,29.85,South,178,0.0,0.0,53,0.00,,,0.00,weatherlink.com 1.10,2013-04-22 04:45:00,
2013-04-21 23:00:00,43.1,27.0,29.84,SW,221,1.0,1.0,54,0.00,,,0.00,weatherlink.com 1.10,2013-04-22 05:00:00,
2013-04-21 23:15:00,42.9,28.0,29.84,SW,235,0.0,1.0,55,0.00,,,0.00,weatherlink.com 1.10,2013-04-22 05:15:00,
2013-04-21 23:30:00,41.5,28.0,29.83,SW,235,0.0,0.0,58,0.00,,,0.00,weatherlink.com 1.10,2013-04-22 05:30:00,
2013-04-21 23:45:00,40.4,28.0,29.83,SW,236,0.0,0.0,61,0.00,,,0.00,weatherlink.com 1.10,2013-04-22 05:45:00,